createdAt,value
2023-02-07T00:01:52.403Z,7.53
2023-02-07T00:06:56.266Z,8.50
2023-02-07T00:12:01.132Z,6.57
2023-02-07T00:17:05.153Z,6.47
2023-02-07T00:22:08.647Z,7.07
2023-02-07T00:27:13.592Z,8.77
2023-02-07T00:32:17.006Z,8.05
2023-02-07T00:37:20.421Z,8.02
2023-02-07T00:42:25.330Z,7.82
2023-02-07T00:47:29.204Z,7.95
2023-02-07T00:52:32.679Z,10.77
2023-02-07T00:57:37.568Z,12.38
2023-02-07T01:02:41.244Z,12.20
2023-02-07T01:07:44.758Z,10.73
2023-02-07T01:12:49.626Z,10.80
2023-02-07T01:17:53.122Z,13.05
2023-02-07T01:22:56.555Z,13.60
2023-02-07T01:28:01.584Z,11.68
2023-02-07T01:33:05.764Z,11.60
2023-02-07T01:38:09.154Z,12.02
2023-02-07T01:43:18.474Z,12.10
2023-02-07T01:48:24.821Z,13.75
2023-02-07T01:53:30.618Z,10.65
2023-02-07T01:58:36.369Z,11.48
2023-02-07T02:03:45.294Z,13.52
2023-02-07T02:08:48.818Z,14.30
2023-02-07T02:14:06.133Z,12.95
2023-02-07T02:19:38.570Z,11.85
2023-02-07T02:25:12.407Z,14.80
2023-02-07T02:30:54.521Z,10.75
2023-02-07T02:36:10.297Z,12.98
2023-02-07T02:41:18.775Z,13.50
2023-02-07T02:46:25.829Z,14.25
2023-02-07T02:51:32.154Z,14.60
2023-02-07T02:56:50.070Z,13.05
2023-02-07T03:02:04.199Z,14.52
2023-02-07T03:07:25.873Z,15.30
2023-02-07T03:12:35.800Z,15.85
2023-02-07T03:17:45.827Z,15.55
2023-02-07T03:22:53.286Z,15.45
2023-02-07T03:27:57.867Z,16.50
2023-02-07T03:33:10.361Z,15.85
2023-02-07T03:38:15.492Z,13.90
2023-02-07T03:43:23.917Z,16.27
2023-02-07T03:48:27.511Z,21.15
2023-02-07T03:53:32.428Z,14.70
2023-02-07T03:58:36.927Z,15.13
2023-02-07T04:03:40.366Z,18.55
2023-02-07T04:08:45.356Z,19.27
2023-02-07T04:13:48.752Z,14.50
2023-02-07T04:18:52.138Z,16.65
2023-02-07T04:23:56.910Z,13.50
2023-02-07T04:29:00.370Z,17.58
2023-02-07T04:34:03.804Z,16.90
2023-02-07T04:39:08.830Z,14.35
2023-02-07T04:44:12.220Z,16.45
2023-02-07T04:49:15.886Z,22.27
2023-02-07T04:54:20.957Z,17.17
2023-02-07T04:59:24.529Z,14.82
2023-02-07T05:04:28.036Z,17.90
2023-02-07T05:09:32.975Z,20.83
2023-02-07T05:14:36.468Z,20.40
2023-02-07T05:19:39.830Z,20.17
2023-02-07T05:24:44.767Z,17.42
2023-02-07T05:29:48.162Z,19.25
2023-02-07T05:34:52.728Z,17.23
2023-02-07T05:39:57.548Z,16.15
2023-02-07T05:45:01.006Z,16.42
2023-02-07T05:50:04.711Z,16.88
2023-02-07T05:55:10.777Z,21.38
2023-02-07T06:00:16.652Z,21.13
2023-02-07T06:05:21.559Z,20.42
2023-02-07T06:10:26.452Z,18.17
2023-02-07T06:15:30.054Z,19.52
2023-02-07T06:20:33.516Z,20.13
2023-02-07T06:25:38.498Z,19.08
2023-02-07T06:30:42.103Z,17.52
2023-02-07T06:35:47.400Z,20.83
2023-02-07T06:40:52.492Z,22.23
2023-02-07T06:45:55.937Z,18.85
2023-02-07T06:50:59.493Z,20.48
2023-02-07T06:56:04.639Z,23.02
2023-02-07T07:01:08.285Z,17.60
2023-02-07T07:06:11.689Z,16.55
2023-02-07T07:11:16.544Z,18.35
2023-02-07T07:16:20.304Z,20.67
2023-02-07T07:21:24.201Z,22.35
2023-02-07T07:26:36.633Z,18.90
2023-02-07T07:31:50.477Z,20.00
2023-02-07T07:36:56.618Z,17.13
2023-02-07T07:42:01.675Z,19.15
2023-02-07T07:47:22.722Z,19.67
2023-02-07T07:52:26.198Z,17.45
2023-02-07T07:57:31.072Z,15.23
2023-02-07T08:02:34.532Z,17.15
2023-02-07T08:07:37.969Z,18.65
2023-02-07T08:12:44.211Z,18.33
2023-02-07T08:17:47.890Z,16.92
2023-02-07T08:22:51.270Z,16.38
2023-02-07T08:27:56.405Z,14.45
2023-02-07T08:32:59.847Z,16.10
2023-02-07T08:38:07.537Z,16.98
2023-02-07T08:43:13.162Z,15.35
2023-02-07T08:48:16.870Z,13.63
2023-02-07T08:53:20.217Z,13.98
2023-02-07T08:58:25.456Z,16.08
2023-02-07T09:03:28.948Z,15.48
2023-02-07T09:08:32.630Z,14.50
2023-02-07T09:13:38.028Z,12.50
2023-02-07T09:18:42.037Z,15.73
2023-02-07T09:23:45.702Z,11.88
2023-02-07T09:28:51.123Z,13.52
2023-02-07T09:33:54.711Z,14.25
2023-02-07T09:38:58.812Z,15.30
2023-02-07T09:44:14.098Z,12.43
2023-02-07T09:49:29.171Z,13.25
2023-02-07T09:54:38.556Z,13.38
2023-02-07T09:59:52.964Z,15.77
2023-02-07T10:05:01.668Z,14.35
2023-02-07T10:10:05.292Z,11.97
2023-02-07T10:15:24.869Z,14.02
2023-02-07T10:20:39.727Z,13.20
2023-02-07T10:25:56.439Z,16.55
2023-02-07T10:31:07.789Z,13.18
2023-02-07T10:36:16.867Z,14.18
2023-02-07T10:41:23.939Z,14.98
2023-02-07T10:46:30.451Z,13.35
2023-02-07T10:51:38.059Z,14.50
2023-02-07T10:56:44.238Z,13.93
2023-02-07T11:01:54.451Z,11.43
2023-02-07T11:07:02.115Z,13.85
2023-02-07T11:12:16.280Z,13.55
2023-02-07T11:17:22.743Z,12.10
2023-02-07T11:22:30.254Z,12.00
2023-02-07T11:27:42.624Z,12.75
2023-02-07T11:32:57.192Z,15.25
2023-02-07T11:38:04.612Z,12.70
2023-02-07T11:43:13.853Z,12.43
2023-02-07T11:48:21.978Z,13.37
2023-02-07T11:53:29.522Z,13.75
2023-02-07T11:58:36.131Z,13.85
2023-02-07T12:03:48.765Z,11.35
2023-02-07T12:08:53.499Z,13.75
2023-02-07T12:14:04.014Z,12.43
2023-02-07T12:19:17.814Z,12.95
2023-02-07T12:24:26.651Z,12.70
2023-02-07T12:29:43.374Z,11.77
2023-02-07T12:34:55.432Z,13.50
2023-02-07T12:40:05.563Z,10.75
2023-02-07T12:45:15.783Z,12.18
2023-02-07T12:50:37.552Z,10.80
2023-02-07T12:55:51.501Z,10.95
2023-02-07T13:01:01.789Z,9.55
2023-02-07T13:06:16.552Z,9.73
2023-02-07T13:11:30.312Z,10.88
2023-02-07T13:16:41.860Z,8.57
2023-02-07T13:21:52.573Z,11.68
2023-02-07T13:27:00.777Z,10.05
2023-02-07T13:32:12.516Z,8.07
2023-02-07T13:37:18.994Z,7.43
2023-02-07T13:42:28.748Z,7.93
2023-02-07T13:47:49.726Z,7.63
2023-02-07T13:53:00.751Z,7.97
2023-02-07T13:58:23.537Z,7.10
2023-02-07T14:03:31.055Z,6.93
2023-02-07T14:08:36.151Z,7.30
2023-02-07T14:13:40.042Z,7.30
2023-02-07T14:18:46.440Z,7.10
2023-02-07T14:24:05.540Z,9.95
2023-02-07T14:29:56.823Z,7.43
2023-02-07T14:35:04.957Z,6.13
2023-02-07T14:40:20.705Z,8.70
2023-02-07T14:45:25.299Z,5.60
2023-02-07T14:50:33.482Z,6.88
2023-02-07T14:55:48.826Z,7.50
2023-02-07T15:00:56.119Z,7.20
2023-02-07T15:06:01.418Z,6.72
2023-02-07T15:11:08.302Z,7.97
2023-02-07T15:16:16.967Z,6.70
2023-02-07T15:21:24.383Z,8.27
2023-02-07T15:26:29.780Z,8.63
2023-02-07T15:31:39.382Z,7.10
2023-02-07T15:36:45.959Z,6.80
2023-02-07T15:41:52.748Z,14.63
2023-02-07T15:46:57.913Z,9.20
2023-02-07T15:52:13.272Z,11.23
2023-02-07T15:57:24.536Z,8.77
2023-02-07T16:02:31.902Z,8.40
2023-02-07T16:07:37.007Z,6.05
2023-02-07T16:12:49.828Z,7.75
2023-02-07T16:17:53.991Z,5.30
2023-02-07T16:22:59.949Z,6.15
2023-02-07T16:28:08.672Z,6.00
2023-02-07T16:33:14.454Z,5.40
2023-02-07T16:38:17.904Z,7.28
2023-02-07T16:43:35.100Z,6.07
2023-02-07T16:48:38.676Z,7.68
2023-02-07T16:53:42.150Z,9.07
2023-02-07T16:58:46.934Z,7.38
2023-02-07T17:03:50.741Z,7.82
2023-02-07T17:08:56.547Z,10.40
2023-02-07T17:14:01.588Z,8.93
2023-02-07T17:19:12.316Z,10.00
2023-02-07T17:24:15.827Z,7.70
2023-02-07T17:29:21.362Z,8.15
2023-02-07T17:34:24.730Z,8.23
2023-02-07T17:39:28.496Z,8.73
2023-02-07T17:44:35.442Z,8.57
2023-02-07T17:49:38.984Z,8.32
2023-02-07T17:54:45.220Z,9.48
2023-02-07T17:59:50.257Z,10.10
2023-02-07T18:04:53.971Z,7.93
2023-02-07T18:09:57.813Z,10.07
2023-02-07T18:15:03.810Z,8.30
2023-02-07T18:20:10.999Z,9.73
2023-02-07T18:25:14.391Z,12.77
2023-02-07T18:30:21.002Z,9.63
2023-02-07T18:35:24.569Z,11.20
2023-02-07T18:40:28.404Z,11.80
2023-02-07T18:45:33.759Z,11.13
2023-02-07T18:50:38.203Z,9.15
2023-02-07T18:55:42.145Z,11.73
2023-02-07T19:00:47.232Z,14.10
2023-02-07T19:05:50.908Z,13.45
2023-02-07T19:10:55.765Z,10.02
2023-02-07T19:16:04.983Z,11.27
2023-02-07T19:21:10.589Z,12.88
2023-02-07T19:26:14.143Z,11.43
2023-02-07T19:31:20.364Z,13.07
2023-02-07T19:36:25.826Z,14.13
2023-02-07T19:41:30.239Z,17.33
2023-02-07T19:46:35.076Z,21.35
2023-02-07T19:51:38.769Z,16.85
2023-02-07T19:56:42.709Z,15.45
2023-02-07T20:01:47.574Z,15.73
2023-02-07T20:06:51.118Z,14.82
2023-02-07T20:11:55.042Z,21.50
2023-02-07T20:16:59.931Z,22.40
2023-02-07T20:22:03.277Z,19.88
2023-02-07T20:27:06.733Z,16.10
2023-02-07T20:32:12.719Z,16.48
2023-02-07T20:37:16.499Z,17.42
2023-02-07T20:42:20.052Z,17.30
2023-02-07T20:47:25.651Z,17.05
2023-02-07T20:52:30.379Z,15.30
2023-02-07T20:57:33.817Z,15.77
2023-02-07T21:02:39.342Z,24.00
2023-02-07T21:07:45.662Z,22.20
2023-02-07T21:12:49.041Z,23.00
2023-02-07T21:17:54.075Z,15.18
2023-02-07T21:22:57.824Z,16.42
2023-02-07T21:28:01.362Z,19.42
2023-02-07T21:33:09.306Z,15.10
2023-02-07T21:38:12.821Z,17.13
2023-02-07T21:43:16.496Z,15.48
2023-02-07T21:48:22.426Z,21.08
2023-02-07T21:53:26.602Z,19.90
2023-02-07T21:58:30.910Z,15.73
2023-02-07T22:03:35.946Z,19.45
2023-02-07T22:08:40.593Z,19.65
2023-02-07T22:13:45.975Z,24.23
2023-02-07T22:18:53.450Z,19.17
2023-02-07T22:23:59.063Z,15.95
2023-02-07T22:29:03.535Z,18.90
2023-02-07T22:34:10.295Z,16.25
2023-02-07T22:39:15.826Z,17.15
2023-02-07T22:44:19.332Z,18.23
2023-02-07T22:49:24.253Z,17.15
2023-02-07T22:54:27.674Z,13.45
2023-02-07T22:59:31.476Z,16.13
2023-02-07T23:04:36.201Z,17.55
2023-02-07T23:09:40.133Z,14.65
2023-02-07T23:14:43.785Z,15.88
2023-02-07T23:19:48.655Z,17.15
2023-02-07T23:24:55.013Z,16.10
2023-02-07T23:29:58.525Z,16.40
2023-02-07T23:35:03.304Z,15.48
2023-02-07T23:40:07.514Z,20.65
2023-02-07T23:45:11.128Z,19.48
2023-02-07T23:50:15.914Z,28.55
2023-02-07T23:55:19.599Z,30.05
